Time;durP1;ratioP1;P1;durP2;ratioP2;P2;SDS_P1;SDS_P2;PMS_P1;PMS_P2;Temp;Humidity;BMP_temperature;BMP_pressure;BME280_temperature;BME280_humidity;BME280_pressure;Samples;Min_cycle;Max_cycle;Signal;HPM_P1;HPM_P2
2023/06/28 00:01:15;;;;;;;14.40;3.78;;;;;;;;;;4878610;29;20049;-68
2023/06/28 00:03:41;;;;;;;11.48;3.50;;;18.00;99.90;;;;;;4878502;29;20124;-68
2023/06/28 00:06:07;;;;;;;12.40;3.50;;;;;;;;;;4893212;29;20135;-68
2023/06/28 00:08:33;;;;;;;12.68;3.60;;;;;;;;;;4895249;29;20047;-68
2023/06/28 00:10:59;;;;;;;12.93;3.67;;;;;;;;;;4882112;29;20108;-68
2023/06/28 00:13:26;;;;;;;11.05;3.45;;;;;;;;;;4878487;29;20040;-68
2023/06/28 00:15:52;;;;;;;12.25;3.80;;;;;;;;;;4894158;29;20405;-68
2023/06/28 00:18:18;;;;;;;14.38;3.42;;;;;;;;;;4895351;29;20036;-68
2023/06/28 00:20:44;;;;;;;14.23;3.13;;;17.40;99.90;;;;;;4895089;29;20036;-69
2023/06/28 00:23:11;;;;;;;7.95;3.42;;;17.90;99.90;;;;;;4874286;29;20040;-69
2023/06/28 00:25:37;;;;;;;9.38;3.33;;;;;;;;;;4878408;29;20135;-68
2023/06/28 00:28:04;;;;;;;7.50;2.88;;;17.30;99.90;;;;;;4878477;29;20037;-68
2023/06/28 00:30:30;;;;;;;12.35;3.50;;;16.90;99.80;;;;;;4891927;29;20434;-68
2023/06/28 00:32:56;;;;;;;11.20;3.20;;;;;;;;;;4894192;29;20040;-68
2023/06/28 00:35:22;;;;;;;8.55;3.00;;;17.60;99.90;;;;;;4884505;29;20144;-68
2023/06/28 00:37:48;;;;;;;12.50;3.30;;;17.80;99.90;;;;;;4885243;29;20126;-68
2023/06/28 00:40:14;;;;;;;9.82;2.88;;;;;;;;;;4879579;29;20045;-68
2023/06/28 00:42:39;;;;;;;8.25;3.00;;;15.60;99.90;;;;;;4868373;29;20089;-68
2023/06/28 00:45:06;;;;;;;9.13;3.10;;;17.30;99.90;;;;;;4878448;29;20037;-68
2023/06/28 00:47:32;;;;;;;12.93;3.17;;;;;;;;;;4870691;29;20083;-68
2023/06/28 00:50:00;;;;;;;10.75;2.90;;;17.70;99.90;;;;;;4894888;29;20482;-68
2023/06/28 00:52:26;;;;;;;8.90;2.83;;;16.70;99.70;;;;;;4893329;29;20084;-68
2023/06/28 00:54:52;;;;;;;9.95;2.67;;;;;;;;;;4869418;29;20048;-68
2023/06/28 00:57:18;;;;;;;7.45;3.17;;;;;;;;;;4864260;29;20044;-68
2023/06/28 00:59:45;;;;;;;8.45;2.70;;;15.80;99.90;;;;;;4887056;29;20072;-68
2023/06/28 01:02:11;;;;;;;15.18;3.22;;;15.70;99.90;;;;;;4885396;29;20557;-70
2023/06/28 01:04:38;;;;;;;9.02;3.17;;;16.70;99.90;;;;;;4881687;29;20123;-69
2023/06/28 01:07:04;;;;;;;11.65;2.95;;;16.20;99.90;;;;;;4878628;29;20044;-69
2023/06/28 01:09:31;;;;;;;7.53;2.55;;;17.20;99.90;;;;;;4892382;29;20048;-69
2023/06/28 01:11:57;;;;;;;9.57;2.78;;;17.60;99.90;;;;;;4881413;29;20142;-69
2023/06/28 01:14:25;;;;;;;9.30;2.72;;;16.60;99.90;;;;;;4881630;29;20044;-69
2023/06/28 01:16:54;;;;;;;7.85;2.72;;;17.50;99.90;;;;;;4892284;29;20076;-69
2023/06/28 01:19:25;;;;;;;10.55;2.13;;;16.40;99.90;;;;;;4880781;29;20567;-69
2023/06/28 01:21:56;;;;;;;7.18;2.47;;;17.00;99.90;;;;;;4879421;29;20072;-69
2023/06/28 01:24:22;;;;;;;4.93;2.33;;;16.80;99.90;;;;;;4884966;29;20045;-70
2023/06/28 01:26:52;;;;;;;5.90;2.00;;;17.30;99.90;;;;;;4866122;29;20041;-70
2023/06/28 01:29:23;;;;;;;7.00;2.33;;;15.80;99.90;;;;;;4888044;29;20128;-70
2023/06/28 01:31:53;;;;;;;6.85;2.47;;;16.70;99.10;;;;;;4898178;29;20140;-70
2023/06/28 01:34:19;;;;;;;6.70;2.47;;;;;;;;;;4895641;29;20040;-70
2023/06/28 01:36:47;;;;;;;6.30;2.50;;;16.70;99.90;;;;;;4873454;29;20041;-68
2023/06/28 01:39:15;;;;;;;9.82;2.60;;;16.70;99.90;;;;;;4881824;29;20884;-68
2023/06/28 01:41:42;;;;;;;7.05;2.47;;;16.70;99.90;;;;;;4884737;29;20044;-68
2023/06/28 01:44:08;;;;;;;7.55;2.70;;;15.60;99.90;;;;;;4883518;29;20382;-68
2023/06/28 01:46:34;;;;;;;7.32;2.72;;;15.90;99.90;;;;;;4872713;29;20041;-68
2023/06/28 01:49:01;;;;;;;8.65;2.80;;;16.80;99.90;;;;;;4880890;29;20041;-68
2023/06/28 01:51:27;;;;;;;6.47;2.30;;;15.80;99.90;;;;;;4881806;29;20045;-68
2023/06/28 01:53:53;;;;;;;7.57;2.70;;;;;;;;;;4890244;29;20458;-68
2023/06/28 01:56:19;;;;;;;8.10;2.92;;;16.70;99.90;;;;;;4897584;29;20451;-68
2023/06/28 01:58:44;;;;;;;6.80;2.83;;;15.50;99.90;;;;;;4851910;29;20072;-68
2023/06/28 02:01:10;;;;;;;7.38;2.88;;;15.30;99.90;;;;;;4895072;29;20088;-68
2023/06/28 02:03:36;;;;;;;7.03;2.50;;;;;;;;;;4892905;29;20049;-68
2023/06/28 02:06:02;;;;;;;6.20;2.97;;;;;;;;;;4880911;29;20049;-68
2023/06/28 02:08:28;;;;;;;9.35;2.70;;;17.10;99.90;;;;;;4880483;29;20053;-69
2023/06/28 02:10:54;;;;;;;6.53;2.67;;;15.40;99.90;;;;;;4879773;29;20175;-68
2023/06/28 02:13:19;;;;;;;6.03;2.92;;;15.40;99.90;;;;;;4887337;29;20096;-68
2023/06/28 02:15:45;;;;;;;5.30;2.80;;;15.70;99.90;;;;;;4882444;29;20041;-68
2023/06/28 02:18:14;;;;;;;9.23;3.00;;;;;;;;;;4886697;29;20041;-68
2023/06/28 02:20:39;;;;;;;5.20;2.80;;;17.30;99.90;;;;;;4880310;29;20052;-68
2023/06/28 02:23:05;;;;;;;5.90;2.70;;;17.50;99.90;;;;;;4883351;29;20067;-68
2023/06/28 02:25:31;;;;;;;5.13;2.65;;;15.10;99.90;;;;;;4896753;29;20143;-68
2023/06/28 02:27:57;;;;;;;6.70;2.72;;;;;;;;;;4880009;29;20041;-68
2023/06/28 02:30:23;;;;;;;4.97;2.65;;;16.90;99.90;;;;;;4891748;29;20068;-69
2023/06/28 02:32:49;;;;;;;7.35;2.50;;;;;;;;;;4894430;29;20481;-68
2023/06/28 02:35:15;;;;;;;3.80;2.50;;;;;;;;;;4888616;29;20056;-68
2023/06/28 02:37:41;;;;;;;8.40;2.80;;;15.40;99.90;;;;;;4896769;29;20037;-68
2023/06/28 02:40:09;;;;;;;6.03;2.45;;;16.20;99.90;;;;;;4886637;29;20037;-68
2023/06/28 02:42:35;;;;;;;6.68;2.60;;;;;;;;;;4881500;29;20056;-68
2023/06/28 02:45:01;;;;;;;5.85;2.70;;;;;;;;;;4888899;29;20041;-69
2023/06/28 02:47:27;;;;;;;7.72;2.47;;;;;;;;;;4850207;29;20075;-68
2023/06/28 02:49:53;;;;;;;6.25;2.30;;;;;;;;;;4879649;29;20105;-68
2023/06/28 02:52:19;;;;;;;4.18;2.47;;;;;;;;;;4866399;29;20502;-69
2023/06/28 02:54:45;;;;;;;6.22;2.50;;;15.10;99.90;;;;;;4885861;29;20120;-68
2023/06/28 02:57:11;;;;;;;6.18;2.53;;;16.80;99.90;;;;;;4879660;29;20116;-68
2023/06/28 02:59:37;;;;;;;7.13;2.65;;;;;;;;;;4880796;29;20037;-68
2023/06/28 03:02:04;;;;;;;4.25;2.20;;;16.30;99.90;;;;;;4880898;29;20048;-68
2023/06/28 03:04:30;;;;;;;3.67;2.40;;;15.10;99.90;;;;;;4869643;29;20040;-68
2023/06/28 03:06:56;;;;;;;4.82;2.08;;;;;;;;;;4883146;29;20077;-68
2023/06/28 03:09:22;;;;;;;6.63;2.20;;;15.10;99.90;;;;;;4864226;29;20052;-68
2023/06/28 03:11:48;;;;;;;4.90;2.67;;;;;;;;;;4865002;29;20049;-68
2023/06/28 03:14:14;;;;;;;4.28;2.38;;;15.70;99.90;;;;;;4879483;29;20037;-68
2023/06/28 03:16:39;;;;;;;4.38;2.20;;;17.00;99.90;;;;;;4879167;29;20125;-69
2023/06/28 03:19:08;;;;;;;11.27;2.30;;;16.10;99.90;;;;;;4879383;29;20041;-68
2023/06/28 03:21:34;;;;;;;5.57;2.40;;;14.90;99.90;;;;;;4889803;29;20045;-69
2023/06/28 03:24:00;;;;;;;3.65;2.00;;;;;;;;;;4878869;29;20056;-68
2023/06/28 03:26:26;;;;;;;5.50;2.65;;;;;;;;;;4880268;29;20394;-68
2023/06/28 03:28:57;;;;;;;5.43;2.47;;;;;;;;;;4884561;29;20040;-68
2023/06/28 03:31:23;;;;;;;5.72;2.22;;;16.70;99.90;;;;;;4887157;29;20560;-68
2023/06/28 03:33:49;;;;;;;4.28;2.45;;;14.90;99.90;;;;;;4871737;29;20049;-69
2023/06/28 03:36:14;;;;;;;5.28;2.20;;;15.40;99.90;;;;;;4872899;29;20033;-68
2023/06/28 03:38:40;;;;;;;4.47;2.33;;;17.20;99.90;;;;;;4879153;29;20390;-68
2023/06/28 03:41:07;;;;;;;3.85;2.30;;;15.70;99.90;;;;;;4873031;29;20037;-68
2023/06/28 03:43:33;;;;;;;5.20;2.20;;;;;;;;;;4848463;29;20052;-69
2023/06/28 03:45:59;;;;;;;5.40;2.60;;;;;;;;;;4885484;29;20147;-68
2023/06/28 03:48:24;;;;;;;5.07;2.30;;;17.20;99.90;;;;;;4866478;29;20132;-68
2023/06/28 03:50:51;;;;;;;5.07;2.78;;;;;;;;;;4891046;29;20135;-68
2023/06/28 03:53:17;;;;;;;7.13;2.30;;;16.10;99.90;;;;;;4893605;29;20049;-69
2023/06/28 03:55:42;;;;;;;6.07;2.33;;;14.80;99.90;;;;;;4892854;29;20037;-68
2023/06/28 03:58:08;;;;;;;7.28;2.45;;;15.00;99.90;;;;;;4894215;29;20032;-70
2023/06/28 04:00:34;;;;;;;4.32;2.10;;;;;;;;;;4861944;29;20040;-71
2023/06/28 04:03:02;;;;;;;6.18;2.25;;;;;;;;;;4895339;29;20036;-71
2023/06/28 04:05:28;;;;;;;8.18;2.67;;;15.00;99.90;;;;;;4887040;29;20073;-71
2023/06/28 04:07:58;;;;;;;6.70;2.30;;;;;;;;;;4868573;29;20075;-71
2023/06/28 04:10:25;;;;;;;4.95;2.72;;;16.90;99.90;;;;;;4890062;29;20127;-71
2023/06/28 04:12:51;;;;;;;4.43;2.63;;;16.30;99.90;;;;;;4879796;29;20045;-71
2023/06/28 04:15:17;;;;;;;4.80;2.28;;;;;;;;;;4868889;29;20041;-71
2023/06/28 04:17:43;;;;;;;4.93;2.60;;;;;;;;;;4881523;29;20128;-71
2023/06/28 04:20:10;;;;;;;5.45;2.88;;;15.20;99.90;;;;;;4889742;29;20049;-71
2023/06/28 04:22:36;;;;;;;7.60;3.00;;;16.00;99.90;;;;;;4889486;29;20054;-71
2023/06/28 04:25:02;;;;;;;8.80;3.13;;;16.00;99.90;;;;;;4887411;29;20404;-71
2023/06/28 04:27:28;;;;;;;6.47;3.20;;;;;;;;;;4889751;29;20048;-69
2023/06/28 04:29:54;;;;;;;8.75;3.47;;;;;;;;;;4892902;29;20447;-68
2023/06/28 04:32:29;;;;;;;5.43;3.33;;;15.40;99.90;;;;;;4884269;29;20052;-68
2023/06/28 04:34:59;;;;;;;9.75;3.58;;;;;;;;;;4879630;29;20602;-69
2023/06/28 04:37:31;;;;;;;9.63;3.42;;;;;;;;;;4885650;29;20037;-68
2023/06/28 04:40:04;;;;;;;8.00;3.55;;;17.30;99.90;;;;;;4883256;29;20037;-68
2023/06/28 04:42:30;;;;;;;7.63;3.42;;;16.60;99.90;;;;;;4892343;29;20433;-69
2023/06/28 04:44:59;;;;;;;10.02;3.83;;;15.10;99.90;;;;;;4881924;29;20045;-68
2023/06/28 04:47:27;;;;;;;12.93;4.20;;;15.50;99.90;;;;;;4889154;29;20057;-69
2023/06/28 04:49:54;;;;;;;14.15;4.00;;;;;;;;;;4883100;29;20049;-69
2023/06/28 04:52:21;;;;;;;14.43;3.97;;;17.00;99.90;;;;;;4887690;29;20056;-69
2023/06/28 04:54:48;;;;;;;6.25;3.72;;;16.20;99.90;;;;;;4872710;29;20089;-69
2023/06/28 04:57:15;;;;;;;11.98;4.00;;;15.20;99.90;;;;;;4863321;29;20471;-69
2023/06/28 04:59:41;;;;;;;13.98;4.10;;;;;;;;;;4874702;29;20037;-69
2023/06/28 05:02:09;;;;;;;10.15;4.10;;;;;;;;;;4883364;29;20064;-69
2023/06/28 05:04:36;;;;;;;13.35;4.32;;;15.50;99.90;;;;;;4896019;29;20041;-69
2023/06/28 05:07:04;;;;;;;9.98;4.00;;;16.20;99.90;;;;;;4890592;29;20055;-68
2023/06/28 05:09:34;;;;;;;10.88;4.25;;;15.70;99.90;;;;;;4876226;29;20538;-68
2023/06/28 05:12:01;;;;;;;14.45;4.70;;;16.30;99.90;;;;;;4882542;29;20491;-69
2023/06/28 05:14:29;;;;;;;11.68;4.55;;;16.20;99.90;;;;;;4879415;29;20043;-68
2023/06/28 05:16:55;;;;;;;11.25;4.60;;;;;;;;;;4887414;29;20033;-68
2023/06/28 05:19:22;;;;;;;12.52;4.80;;;16.30;99.90;;;;;;4882564;29;20040;-69
2023/06/28 05:21:48;;;;;;;13.88;5.28;;;17.10;99.90;;;;;;4869094;29;20067;-68
2023/06/28 05:24:16;;;;;;;9.65;4.90;;;16.30;99.90;;;;;;4879307;29;20426;-68
2023/06/28 05:26:42;;;;;;;8.65;4.70;;;;;;;;;;4897254;29;20503;-69
2023/06/28 05:29:08;;;;;;;10.63;4.97;;;;;;;;;;4891565;29;20048;-69
2023/06/28 05:31:36;;;;;;;10.73;5.75;;;17.40;99.90;;;;;;4880832;29;20470;-69
2023/06/28 05:34:02;;;;;;;11.75;5.03;;;;;;;;;;4881136;29;20524;-68
2023/06/28 05:36:29;;;;;;;11.15;5.07;;;;;;;;;;4879201;29;20064;-69
2023/06/28 05:38:56;;;;;;;11.02;5.15;;;16.50;99.90;;;;;;4881788;29;20052;-68
2023/06/28 05:41:22;;;;;;;12.98;6.45;;;;;;;;;;4865991;29;20375;-68
2023/06/28 05:43:48;;;;;;;11.35;5.32;;;;;;;;;;4890291;29;20044;-68
2023/06/28 05:46:14;;;;;;;12.57;5.97;;;;;;;;;;4891928;29;20040;-68
2023/06/28 05:48:40;;;;;;;13.18;5.65;;;15.50;99.90;;;;;;4878176;29;20158;-68
2023/06/28 05:51:09;;;;;;;13.20;5.43;;;;;;;;;;4876386;29;20123;-69
2023/06/28 05:53:39;;;;;;;9.70;4.63;;;15.80;99.90;;;;;;4885936;29;20125;-69
2023/06/28 05:56:05;;;;;;;10.23;5.55;;;16.50;99.90;;;;;;4880631;29;20037;-68
2023/06/28 05:58:31;;;;;;;11.13;5.25;;;;;;;;;;4865387;29;20490;-72
2023/06/28 06:00:57;;;;;;;11.68;4.78;;;16.50;99.90;;;;;;4881060;29;20049;-72
2023/06/28 06:03:23;;;;;;;10.40;4.93;;;16.90;99.90;;;;;;4880727;29;20398;-71
2023/06/28 06:05:49;;;;;;;11.88;5.30;;;;;;;;;;4882006;29;20084;-71
2023/06/28 06:08:15;;;;;;;9.43;5.40;;;15.30;99.90;;;;;;4880722;29;20048;-71
2023/06/28 06:10:41;;;;;;;10.38;5.22;;;;;;;;;;4880680;29;20045;-71
2023/06/28 06:13:07;;;;;;;13.82;5.90;;;16.90;99.90;;;;;;4880749;29;20057;-72
2023/06/28 06:15:32;;;;;;;10.73;4.85;;;17.50;99.90;;;;;;4880606;29;20427;-72
2023/06/28 06:17:58;;;;;;;11.20;5.22;;;16.60;99.90;;;;;;4864909;29;20127;-68
2023/06/28 06:20:24;;;;;;;11.82;4.53;;;;;;;;;;4865168;29;20049;-68
2023/06/28 06:22:50;;;;;;;13.60;4.90;;;15.50;99.90;;;;;;4880701;29;20048;-68
2023/06/28 06:25:16;;;;;;;10.63;5.15;;;17.10;99.90;;;;;;4864855;29;20410;-69
2023/06/28 06:27:42;;;;;;;9.95;4.93;;;16.90;99.90;;;;;;4864916;29;20045;-68
2023/06/28 06:30:10;;;;;;;12.07;5.25;;;15.50;99.90;;;;;;4880185;29;20507;-69
2023/06/28 06:32:36;;;;;;;10.93;5.75;;;16.50;99.90;;;;;;4880267;29;20132;-68
2023/06/28 06:35:03;;;;;;;13.68;5.45;;;;;;;;;;4849618;29;20042;-68
2023/06/28 06:37:28;;;;;;;18.73;5.80;;;17.30;99.90;;;;;;4874146;29;20073;-71
2023/06/28 06:39:55;;;;;;;10.98;5.70;;;;;;;;;;4880318;29;20084;-71
2023/06/28 06:42:20;;;;;;;15.07;6.18;;;15.30;99.90;;;;;;4880338;29;20049;-72
2023/06/28 06:44:46;;;;;;;12.02;5.80;;;17.10;99.90;;;;;;4864372;29;20569;-71
2023/06/28 06:47:12;;;;;;;12.05;5.40;;;17.50;99.90;;;;;;4848887;29;20047;-73
2023/06/28 06:49:38;;;;;;;14.00;5.40;;;17.40;99.90;;;;;;4879381;29;20103;-71
2023/06/28 06:52:04;;;;;;;16.42;5.97;;;;;;;;;;4880561;29;20057;-72
2023/06/28 06:54:30;;;;;;;12.00;5.40;;;;;;;;;;4909394;29;20044;-72
2023/06/28 06:56:57;;;;;;;10.95;5.65;;;;;;;;;;4892559;29;20064;-71
2023/06/28 06:59:23;;;;;;;14.60;5.65;;;;;;;;;;4894752;29;20528;-73
2023/06/28 07:01:53;;;;;;;10.85;4.97;;;;;;;;;;4889455;29;20558;-71
2023/06/28 07:04:19;;;;;;;9.70;4.88;;;;;;;;;;4888416;29;20045;-71
2023/06/28 07:06:46;;;;;;;12.73;5.60;;;17.20;99.90;;;;;;4873504;29;20474;-71
2023/06/28 07:09:14;;;;;;;13.00;5.57;;;16.40;99.90;;;;;;4892008;29;20478;-71
2023/06/28 07:11:40;;;;;;;14.73;5.55;;;;;;;;;;4898219;29;20044;-72
2023/06/28 07:14:06;;;;;;;16.38;6.38;;;;;;;;;;4884587;29;20045;-71
2023/06/28 07:16:32;;;;;;;15.90;5.68;;;;;;;;;;4877842;29;20044;-72
2023/06/28 07:18:58;;;;;;;13.15;6.05;;;;;;;;;;4880197;29;20493;-71
2023/06/28 07:21:24;;;;;;;10.50;5.05;;;;;;;;;;4881163;29;20051;-73
2023/06/28 07:23:50;;;;;;;13.00;6.00;;;17.20;99.90;;;;;;4888772;29;20041;-71
2023/06/28 07:26:17;;;;;;;18.63;6.30;;;;;;;;;;4879126;29;20379;-71
2023/06/28 07:28:43;;;;;;;17.95;6.40;;;;;;;;;;4873453;29;20145;-72
2023/06/28 07:31:09;;;;;;;18.20;6.25;;;;;;;;;;4878562;29;20041;-72
2023/06/28 07:33:35;;;;;;;14.38;5.90;;;;;;;;;;4892079;29;20124;-72
2023/06/28 07:36:02;;;;;;;14.30;6.53;;;;;;;;;;4871323;29;20040;-71
2023/06/28 07:38:28;;;;;;;17.90;6.18;;;;;;;;;;4880403;29;20524;-71
2023/06/28 07:40:55;;;;;;;15.15;6.97;;;;;;;;;;4896334;29;20052;-72
2023/06/28 07:43:21;;;;;;;14.07;6.00;;;;;;;;;;4897699;29;20099;-72
2023/06/28 07:45:47;;;;;;;18.50;6.65;;;;;;;;;;4882291;29;20520;-71
2023/06/28 07:48:13;;;;;;;16.77;7.20;;;;;;;;;;4897560;29;20064;-71
2023/06/28 07:50:39;;;;;;;13.75;6.18;;;17.30;99.90;;;;;;4882092;29;20084;-72
2023/06/28 07:53:05;;;;;;;15.18;6.47;;;17.10;99.90;;;;;;4884885;29;20088;-72
2023/06/28 07:55:30;;;;;;;13.63;6.50;;;17.60;99.90;;;;;;4885033;29;20048;-71
2023/06/28 07:57:57;;;;;;;15.73;6.82;;;16.60;99.90;;;;;;4900903;29;20035;-71
2023/06/28 08:00:23;;;;;;;15.00;7.00;;;;;;;;;;4917364;29;20366;-71
2023/06/28 08:02:50;;;;;;;12.77;6.55;;;;;;;;;;4900391;29;20535;-71
2023/06/28 08:05:15;;;;;;;15.75;7.00;;;15.60;99.90;;;;;;4884886;29;20131;-71
2023/06/28 08:07:41;;;;;;;16.52;6.70;;;15.60;99.90;;;;;;4884949;29;20131;-71
2023/06/28 08:10:07;;;;;;;19.50;6.30;;;15.60;99.90;;;;;;4899544;29;20445;-71
2023/06/28 08:12:34;;;;;;;13.18;6.35;;;;;;;;;;4900098;29;20568;-71
2023/06/28 08:15:00;;;;;;;19.75;6.90;;;;;;;;;;4900205;29;20074;-71
2023/06/28 08:17:26;;;;;;;16.75;7.32;;;15.70;99.90;;;;;;4900227;29;20044;-71
2023/06/28 08:19:54;;;;;;;13.75;7.10;;;;;;;;;;4884817;29;20039;-71
2023/06/28 08:22:20;;;;;;;16.75;7.43;;;;;;;;;;4885232;29;20090;-71
2023/06/28 08:24:46;;;;;;;15.60;6.72;;;;;;;;;;4900136;29;20055;-71
2023/06/28 08:27:12;;;;;;;16.90;7.30;;;17.70;99.90;;;;;;4884626;29;20083;-71
2023/06/28 08:29:37;;;;;;;19.77;7.95;;;17.50;99.90;;;;;;4884823;29;20134;-71
2023/06/28 08:32:03;;;;;;;14.52;7.55;;;17.10;99.90;;;;;;4900240;29;20101;-71
2023/06/28 08:34:29;;;;;;;13.57;7.70;;;15.70;99.90;;;;;;4900243;29;20055;-71
2023/06/28 08:36:55;;;;;;;15.73;8.27;;;17.80;99.90;;;;;;4899955;29;20044;-68
2023/06/28 08:39:20;;;;;;;15.98;7.90;;;17.70;99.90;;;;;;4884446;29;20039;-68
2023/06/28 08:41:47;;;;;;;17.58;7.40;;;17.00;99.90;;;;;;4900123;29;20048;-68
2023/06/28 08:44:14;;;;;;;15.23;8.75;;;17.00;99.90;;;;;;4900019;29;20048;-68
2023/06/28 08:46:46;;;;;;;16.70;7.82;;;16.10;99.90;;;;;;4900064;29;20519;-68
2023/06/28 08:49:13;;;;;;;13.93;8.07;;;17.20;99.90;;;;;;4900338;29;20103;-68
2023/06/28 08:51:40;;;;;;;11.40;8.05;;;;;;;;;;4896880;29;20056;-68
2023/06/28 08:54:09;;;;;;;15.70;8.45;;;16.90;99.90;;;;;;4896886;29;20052;-67
2023/06/28 08:56:35;;;;;;;16.38;7.97;;;17.10;99.90;;;;;;4896909;29;20100;-68
2023/06/28 08:59:02;;;;;;;17.80;9.07;;;17.90;99.90;;;;;;4896915;29;20036;-68
2023/06/28 09:01:28;;;;;;;17.15;9.27;;;16.90;99.90;;;;;;4896654;29;20045;-68
2023/06/28 09:03:54;;;;;;;16.15;9.80;;;;;;;;;;4896981;29;20397;-68
2023/06/28 09:06:22;;;;;;;16.33;8.95;;;17.30;99.90;;;;;;4896692;29;20045;-68
2023/06/28 09:08:48;;;;;;;16.02;9.20;;;;;;;;;;4881061;29;20103;-67
2023/06/28 09:11:16;;;;;;;15.45;9.40;;;16.90;99.90;;;;;;4896862;29;20405;-68
2023/06/28 09:13:42;;;;;;;16.83;9.65;;;;;;;;;;4896649;29;20111;-68
2023/06/28 09:16:09;;;;;;;17.48;8.82;;;;;;;;;;4896612;29;20040;-68
2023/06/28 09:18:35;;;;;;;16.55;9.80;;;16.00;99.90;;;;;;4896413;29;20060;-68
2023/06/28 09:21:03;;;;;;;17.27;10.10;;;;;;;;;;4898005;29;20100;-68
2023/06/28 09:23:31;;;;;;;15.55;9.40;;;15.60;99.90;;;;;;4871693;29;20093;-71
2023/06/28 09:25:57;;;;;;;16.10;9.57;;;;;;;;;;4887836;29;20045;-71
2023/06/28 09:28:30;;;;;;;14.43;9.82;;;17.30;99.90;;;;;;4880719;29;20087;-71
2023/06/28 09:30:56;;;;;;;18.98;10.13;;;17.30;99.90;;;;;;4883738;29;20080;-71
2023/06/28 09:33:23;;;;;;;13.05;9.63;;;16.10;99.90;;;;;;4890583;29;20048;-71
2023/06/28 09:35:56;;;;;;;17.60;11.02;;;18.30;99.90;;;;;;4866275;29;20045;-71
2023/06/28 09:38:22;;;;;;;16.98;9.55;;;;;;;;;;4883299;29;20052;-72
2023/06/28 09:40:58;;;;;;;22.40;9.80;;;16.20;99.90;;;;;;4888933;29;20119;-72
2023/06/28 09:43:24;;;;;;;18.48;10.45;;;;;;;;;;4888524;29;20049;-72
2023/06/28 09:45:53;;;;;;;17.48;10.68;;;16.30;99.90;;;;;;4883915;29;20075;-72
2023/06/28 09:48:22;;;;;;;17.83;9.93;;;;;;;;;;4880319;29;20517;-73
2023/06/28 09:50:49;;;;;;;17.15;10.25;;;;;;;;;;4867287;29;20040;-73
2023/06/28 09:53:16;;;;;;;20.00;11.00;;;17.50;99.90;;;;;;4893474;29;20047;-71
2023/06/28 09:55:44;;;;;;;18.77;11.80;;;17.40;99.90;;;;;;4873822;29;20111;-71
2023/06/28 09:58:11;;;;;;;14.55;10.05;;;18.20;99.90;;;;;;4891902;29;20076;-71
2023/06/28 10:00:38;;;;;;;17.75;10.32;;;16.40;99.90;;;;;;4884093;29;20128;-71
2023/06/28 10:03:13;;;;;;;20.35;11.27;;;16.50;99.90;;;;;;4896450;29;20044;-73
2023/06/28 10:05:40;;;;;;;13.32;9.57;;;17.70;99.90;;;;;;4891131;29;20041;-72
2023/06/28 10:08:08;;;;;;;16.00;10.05;;;17.70;99.90;;;;;;4891792;29;20045;-73
2023/06/28 10:10:35;;;;;;;20.17;12.00;;;17.90;99.90;;;;;;4892636;29;20052;-72
2023/06/28 10:13:06;;;;;;;21.70;12.02;;;16.90;99.90;;;;;;4882886;29;20476;-72
2023/06/28 10:15:43;;;;;;;22.83;12.43;;;18.00;99.90;;;;;;4886639;29;20397;-71
2023/06/28 10:18:10;;;;;;;18.00;11.65;;;17.00;99.90;;;;;;4883581;29;20079;-71
2023/06/28 10:20:38;;;;;;;17.35;11.20;;;18.10;99.90;;;;;;4899330;29;20045;-71
2023/06/28 10:23:06;;;;;;;16.88;11.93;;;17.90;99.90;;;;;;4876490;29;20084;-72
2023/06/28 10:25:32;;;;;;;21.73;12.27;;;17.80;99.90;;;;;;4883068;29;20049;-72
2023/06/28 10:27:59;;;;;;;19.55;12.50;;;18.00;99.90;;;;;;4882235;29;20060;-71
2023/06/28 10:30:25;;;;;;;18.33;12.40;;;;;;;;;;4867240;29;20374;-71
2023/06/28 10:32:51;;;;;;;25.23;12.88;;;;;;;;;;4849571;29;20055;-71
2023/06/28 10:35:17;;;;;;;25.02;13.00;;;;;;;;;;4882156;29;20052;-71
2023/06/28 10:37:43;;;;;;;20.42;13.00;;;19.00;99.90;;;;;;4883291;29;20043;-71
2023/06/28 10:40:10;;;;;;;20.10;13.18;;;18.10;99.90;;;;;;4883049;29;20449;-71
2023/06/28 10:42:39;;;;;;;21.33;13.85;;;17.10;99.90;;;;;;4867790;29;20048;-71
2023/06/28 10:45:08;;;;;;;22.10;13.57;;;;;;;;;;4867573;29;20044;-71
2023/06/28 10:47:35;;;;;;;21.83;13.48;;;18.10;99.90;;;;;;4882805;29;20045;-71
2023/06/28 10:50:12;;;;;;;22.88;13.30;;;18.30;99.90;;;;;;4883103;29;20045;-71
2023/06/28 10:52:48;;;;;;;23.83;13.00;;;18.10;99.90;;;;;;4882707;29;20055;-71
2023/06/28 10:55:34;;;;;;;25.30;14.60;;;18.20;99.90;;;;;;4867366;29;20053;-71
2023/06/28 10:58:08;;;;;;;20.75;13.80;;;18.80;99.90;;;;;;4883221;29;20044;-72
2023/06/28 11:00:36;;;;;;;23.17;13.85;;;17.10;99.90;;;;;;4888102;29;20045;-72
2023/06/28 11:03:04;;;;;;;25.17;14.02;;;19.20;99.90;;;;;;4904505;29;20408;-72
2023/06/28 11:05:45;;;;;;;23.52;13.13;;;18.80;99.90;;;;;;4882106;29;20139;-72
2023/06/28 11:08:12;;;;;;;22.88;14.70;;;18.10;99.90;;;;;;4871427;29;20052;-71
2023/06/28 11:10:46;;;;;;;21.73;14.43;;;17.60;99.90;;;;;;4901081;29;20044;-71
2023/06/28 11:13:13;;;;;;;25.55;14.73;;;;;;;;;;4895741;29;20051;-71
2023/06/28 11:15:45;;;;;;;22.38;14.85;;;17.20;99.90;;;;;;4882687;29;20033;-71
2023/06/28 11:18:16;;;;;;;23.73;15.07;;;18.10;99.90;;;;;;4887085;29;20119;-72
2023/06/28 11:20:57;;;;;;;21.88;14.43;;;18.20;99.90;;;;;;4884647;29;20045;-71
2023/06/28 11:23:45;;;;;;;21.35;14.65;;;18.30;99.90;;;;;;4867867;29;20055;-72
2023/06/28 11:26:17;;;;;;;25.17;15.32;;;18.00;99.90;;;;;;4882258;29;20048;-71
2023/06/28 11:28:48;;;;;;;27.05;16.67;;;18.20;99.90;;;;;;4889962;29;20055;-72
2023/06/28 11:31:38;;;;;;;22.52;16.05;;;18.80;99.90;;;;;;4901071;29;20397;-72
2023/06/28 11:34:04;;;;;;;26.27;15.73;;;18.90;99.90;;;;;;4899251;29;20493;-72
2023/06/28 11:36:31;;;;;;;26.08;18.67;;;18.60;99.90;;;;;;4885230;29;20067;-72
2023/06/28 11:38:57;;;;;;;28.65;16.92;;;19.00;99.90;;;;;;4891256;29;20043;-72
2023/06/28 11:41:22;;;;;;;30.17;17.98;;;19.10;99.90;;;;;;4899098;29;20433;-71
2023/06/28 11:43:48;;;;;;;35.67;18.98;;;18.60;99.90;;;;;;4878501;29;20051;-71
2023/06/28 11:46:19;;;;;;;37.25;18.92;;;18.00;99.90;;;;;;4882301;29;20052;-71
2023/06/28 11:48:49;;;;;;;27.73;17.05;;;18.90;99.90;;;;;;4887421;29;20118;-72
2023/06/28 11:51:16;;;;;;;26.55;18.52;;;18.90;99.90;;;;;;4888958;29;20083;-72
2023/06/28 11:53:46;;;;;;;32.78;19.30;;;17.90;99.90;;;;;;4886139;29;20055;-72
2023/06/28 11:56:12;;;;;;;40.95;19.85;;;18.70;99.90;;;;;;4900665;29;20084;-72
2023/06/28 11:58:38;;;;;;;32.22;19.75;;;17.90;99.90;;;;;;4896896;29;20072;-72
2023/06/28 12:01:05;;;;;;;34.60;19.35;;;18.20;99.90;;;;;;4882551;29;20499;-72
2023/06/28 12:03:40;;;;;;;32.38;20.65;;;19.50;99.90;;;;;;4886224;29;20054;-71
2023/06/28 12:06:09;;;;;;;26.77;19.88;;;18.50;99.90;;;;;;4885034;29;20412;-73
2023/06/28 12:08:40;;;;;;;31.70;20.70;;;18.60;99.90;;;;;;4887109;29;20048;-71
2023/06/28 12:11:17;;;;;;;33.75;21.85;;;18.40;99.90;;;;;;4900916;29;20493;-72
2023/06/28 12:13:44;;;;;;;34.75;20.67;;;18.60;99.90;;;;;;4899667;29;20054;-71
2023/06/28 12:16:14;;;;;;;31.60;22.25;;;17.50;99.90;;;;;;4883649;29;20046;-71
2023/06/28 12:18:56;;;;;;;33.70;22.13;;;17.80;99.90;;;;;;4885387;29;20119;-72
2023/06/28 12:21:24;;;;;;;42.28;24.25;;;17.70;99.90;;;;;;4901833;29;20048;-71
2023/06/28 12:23:50;;;;;;;35.95;23.58;;;19.40;99.90;;;;;;4896131;29;20050;-71
2023/06/28 12:26:17;;;;;;;36.90;23.20;;;;;;;;;;4891742;29;20044;-75
2023/06/28 12:28:48;;;;;;;24.90;18.17;;;18.00;99.90;;;;;;4880805;29;20479;-75
2023/06/28 12:31:15;;;;;;;28.80;17.45;;;18.50;99.90;;;;;;4880351;29;20137;-76
2023/06/28 12:33:41;;;;;;;38.20;23.50;;;;;;;;;;4889329;29;20053;-76
2023/06/28 12:36:07;;;;;;;35.72;22.45;;;;;;;;;;4881484;29;20048;-76
2023/06/28 12:38:33;;;;;;;34.20;23.02;;;;;;;;;;4894081;29;20040;-75
2023/06/28 12:41:05;;;;;;;39.08;23.98;;;18.30;99.90;;;;;;4873695;29;20077;-75
2023/06/28 12:43:32;;;;;;;43.88;27.63;;;;;;;;;;4868553;29;20122;-76
2023/06/28 12:46:03;;;;;;;42.45;25.83;;;;;;;;;;4885834;29;20560;-76
2023/06/28 12:48:29;;;;;;;40.63;23.60;;;;;;;;;;4871994;29;20059;-76
2023/06/28 12:50:55;;;;;;;34.97;23.98;;;19.50;99.90;;;;;;4894361;29;20483;-75
2023/06/28 12:53:21;;;;;;;44.10;25.83;;;18.70;99.90;;;;;;4897053;29;20048;-76
2023/06/28 12:55:47;;;;;;;40.10;24.98;;;19.70;99.90;;;;;;4894094;29;20068;-79
2023/06/28 12:58:13;;;;;;;39.05;25.00;;;;;;;;;;4895086;29;20075;-80
2023/06/28 13:00:44;;;;;;;38.15;23.77;;;17.50;99.90;;;;;;4896104;29;20032;-85
2023/06/28 13:03:12;;;;;;;46.70;27.30;;;;;;;;;;4884308;29;20056;-80
2023/06/28 13:05:38;;;;;;;49.95;26.50;;;;;;;;;;4889968;29;20040;-78
2023/06/28 13:08:05;;;;;;;40.80;24.63;;;;;;;;;;4892403;29;20040;-80
2023/06/28 13:10:30;;;;;;;40.00;26.52;;;19.10;99.90;;;;;;4884216;29;20123;-81
2023/06/28 13:12:56;;;;;;;41.15;26.35;;;17.60;99.90;;;;;;4872152;29;20462;-78
2023/06/28 13:15:22;;;;;;;43.35;26.77;;;;;;;;;;4891708;29;20111;-79